createdAt,value
2018-12-15T00:02:20.415Z,3.97
2018-12-15T00:04:48.707Z,4.70
2018-12-15T00:07:17.482Z,4.13
2018-12-15T00:09:45.769Z,4.53
2018-12-15T00:12:14.070Z,4.37
2018-12-15T00:14:42.356Z,4.17
2018-12-15T00:17:10.633Z,4.33
2018-12-15T00:19:38.928Z,4.47
2018-12-15T00:22:07.368Z,4.00
2018-12-15T00:24:35.826Z,4.43
2018-12-15T00:27:04.094Z,4.33
2018-12-15T00:29:32.734Z,4.13
2018-12-15T00:32:01.022Z,4.00
2018-12-15T00:34:29.400Z,4.50
2018-12-15T00:36:57.818Z,4.43
2018-12-15T00:39:26.146Z,4.27
2018-12-15T00:41:54.440Z,4.20
2018-12-15T00:44:22.718Z,4.07
2018-12-15T00:46:51.023Z,4.23
2018-12-15T00:49:19.282Z,4.33
2018-12-15T00:51:47.570Z,4.43
2018-12-15T00:54:16.012Z,4.57
2018-12-15T00:56:44.288Z,4.70
2018-12-15T00:59:12.601Z,4.00
2018-12-15T01:01:41.067Z,4.33
2018-12-15T01:04:09.404Z,4.30
2018-12-15T01:06:37.691Z,4.10
2018-12-15T01:09:05.996Z,4.67
2018-12-15T01:11:34.598Z,4.70
2018-12-15T01:14:03.023Z,4.10
2018-12-15T01:16:31.303Z,4.57
2018-12-15T01:18:59.591Z,4.23
2018-12-15T01:21:27.897Z,4.10
2018-12-15T01:23:56.174Z,4.23
2018-12-15T01:26:24.502Z,4.20
2018-12-15T01:28:52.785Z,4.40
2018-12-15T01:31:21.071Z,4.37
2018-12-15T01:33:49.365Z,3.90
2018-12-15T01:36:17.630Z,4.67
2018-12-15T01:38:45.929Z,3.83
2018-12-15T01:41:14.287Z,4.10
2018-12-15T01:43:42.581Z,4.00
2018-12-15T01:46:10.855Z,4.47
2018-12-15T01:48:39.156Z,4.27
2018-12-15T01:51:07.431Z,4.63
2018-12-15T01:53:35.805Z,4.07
2018-12-15T01:56:04.139Z,3.93
2018-12-15T01:58:32.408Z,4.13
2018-12-15T02:01:00.700Z,4.20
2018-12-15T02:03:29.002Z,4.40
2018-12-15T02:05:57.270Z,4.10
2018-12-15T02:08:25.567Z,4.63
2018-12-15T02:10:53.834Z,3.97
2018-12-15T02:13:22.158Z,4.20
2018-12-15T02:15:50.434Z,3.90
2018-12-15T02:18:18.726Z,4.40
2018-12-15T02:20:47.029Z,4.23
2018-12-15T02:23:15.488Z,4.07
2018-12-15T02:25:43.813Z,4.07
2018-12-15T02:28:12.092Z,4.27
2018-12-15T02:30:40.480Z,4.73
2018-12-15T02:33:08.776Z,4.03
2018-12-15T02:35:37.063Z,4.07
2018-12-15T02:38:05.339Z,4.27
2018-12-15T02:40:33.618Z,3.90
2018-12-15T02:43:01.911Z,3.87
2018-12-15T02:45:30.202Z,4.60
2018-12-15T02:47:58.474Z,3.93
2018-12-15T02:50:26.771Z,4.53
2018-12-15T02:52:55.051Z,4.07
2018-12-15T02:55:23.342Z,4.63
2018-12-15T02:57:51.612Z,4.30
2018-12-15T03:00:19.932Z,4.33
2018-12-15T03:02:48.221Z,4.03
2018-12-15T03:05:16.493Z,4.53
2018-12-15T03:07:44.803Z,4.63
2018-12-15T03:10:13.091Z,4.60
2018-12-15T03:12:41.388Z,4.33
2018-12-15T03:15:09.663Z,4.40
2018-12-15T03:17:38.018Z,4.20
2018-12-15T03:20:06.299Z,4.20
2018-12-15T03:22:34.586Z,4.10
2018-12-15T03:25:02.953Z,4.27
2018-12-15T03:27:31.239Z,4.63
2018-12-15T03:29:59.627Z,4.37
2018-12-15T03:32:27.891Z,4.43
2018-12-15T03:34:56.191Z,4.17
2018-12-15T03:37:24.474Z,4.10
2018-12-15T03:39:59.112Z,4.27
2018-12-15T03:42:27.374Z,4.07
2018-12-15T03:44:55.656Z,4.13
2018-12-15T03:47:23.988Z,4.27
2018-12-15T03:49:52.266Z,4.10
2018-12-15T03:52:20.576Z,4.00
2018-12-15T03:54:48.856Z,4.30
2018-12-15T03:57:17.180Z,4.33
2018-12-15T03:59:45.684Z,4.00
2018-12-15T04:02:14.060Z,3.70
2018-12-15T04:04:42.552Z,4.50
2018-12-15T04:07:10.816Z,4.40
2018-12-15T04:09:39.132Z,4.20
2018-12-15T04:12:07.479Z,4.10
2018-12-15T04:14:35.789Z,4.27
2018-12-15T04:17:04.075Z,3.97
2018-12-15T04:19:32.359Z,4.03
2018-12-15T04:22:11.988Z,4.20
2018-12-15T04:24:40.245Z,4.00
2018-12-15T04:27:10.195Z,4.10
2018-12-15T04:29:38.470Z,4.23
2018-12-15T04:32:06.771Z,4.00
2018-12-15T04:34:35.048Z,3.87
2018-12-15T04:37:03.326Z,4.00
2018-12-15T04:39:31.656Z,4.33
2018-12-15T04:41:59.915Z,3.70
2018-12-15T04:44:28.207Z,4.13
2018-12-15T04:46:56.926Z,3.87
2018-12-15T04:49:25.242Z,3.90
2018-12-15T04:51:53.503Z,4.13
2018-12-15T04:54:21.769Z,4.03
2018-12-15T04:56:50.037Z,4.07
2018-12-15T04:59:18.318Z,4.47
2018-12-15T05:01:46.703Z,3.90
2018-12-15T05:04:15.007Z,4.13
2018-12-15T05:06:43.302Z,3.97
2018-12-15T05:09:11.591Z,4.00
2018-12-15T05:11:39.905Z,4.20
2018-12-15T05:14:08.346Z,4.20
2018-12-15T05:16:36.864Z,4.43
2018-12-15T05:19:05.257Z,4.00
2018-12-15T05:21:33.649Z,3.90
2018-12-15T05:24:01.950Z,4.33
2018-12-15T05:26:30.269Z,4.30
2018-12-15T05:28:58.525Z,3.70
2018-12-15T05:31:26.813Z,4.00
2018-12-15T05:33:55.089Z,3.70
2018-12-15T05:36:23.417Z,3.93
2018-12-15T05:38:51.743Z,3.83
2018-12-15T05:41:20.075Z,3.73
2018-12-15T05:43:48.411Z,3.87
2018-12-15T05:46:16.698Z,3.73
2018-12-15T05:48:45.011Z,3.90
2018-12-15T05:51:13.279Z,4.03
2018-12-15T05:53:41.685Z,4.07
2018-12-15T05:56:09.989Z,3.57
2018-12-15T05:58:38.306Z,3.57
2018-12-15T06:01:06.600Z,3.90
2018-12-15T06:03:34.897Z,3.80
2018-12-15T06:06:03.332Z,3.93
2018-12-15T06:08:31.877Z,4.23
2018-12-15T06:11:00.365Z,3.70
2018-12-15T06:13:28.783Z,4.00
2018-12-15T06:15:57.055Z,4.00
2018-12-15T06:18:31.444Z,4.23
2018-12-15T06:20:55.709Z,4.60
2018-12-15T06:23:24.006Z,4.03
2018-12-15T06:25:52.292Z,4.17
2018-12-15T06:28:21.392Z,4.10
2018-12-15T06:30:49.682Z,3.83
2018-12-15T06:33:17.982Z,4.20
2018-12-15T06:35:46.279Z,3.80
2018-12-15T06:38:14.563Z,3.43
2018-12-15T06:40:42.860Z,3.57
2018-12-15T06:43:11.134Z,3.80
2018-12-15T06:45:39.438Z,3.70
2018-12-15T06:48:07.753Z,3.60
2018-12-15T06:50:36.060Z,3.20
2018-12-15T06:53:04.401Z,3.47
2018-12-15T06:55:32.687Z,3.90
2018-12-15T06:58:01.312Z,3.50
2018-12-15T07:00:29.603Z,3.60
2018-12-15T07:02:59.087Z,3.33
2018-12-15T07:05:27.399Z,3.60
2018-12-15T07:07:55.681Z,3.67
2018-12-15T07:10:23.939Z,3.60
2018-12-15T07:12:52.257Z,3.73
2018-12-15T07:15:20.563Z,3.73
2018-12-15T07:17:48.889Z,3.50
2018-12-15T07:20:17.163Z,3.50
2018-12-15T07:22:45.483Z,3.43
2018-12-15T07:25:13.762Z,3.30
2018-12-15T07:27:42.039Z,3.40
2018-12-15T07:30:10.315Z,3.30
2018-12-15T07:32:38.613Z,3.60
2018-12-15T07:35:06.915Z,3.73
2018-12-15T07:37:35.226Z,3.37
2018-12-15T07:40:03.535Z,3.50
2018-12-15T07:42:31.815Z,3.53
2018-12-15T07:45:00.104Z,3.57
2018-12-15T07:47:28.365Z,3.57
2018-12-15T07:49:56.683Z,3.10
2018-12-15T07:52:24.993Z,3.63
2018-12-15T07:54:53.305Z,3.60
2018-12-15T07:57:21.597Z,3.40
2018-12-15T07:59:49.879Z,3.50
2018-12-15T08:02:18.207Z,3.20
2018-12-15T08:04:46.488Z,3.70
2018-12-15T08:07:15.085Z,3.20
2018-12-15T08:09:43.487Z,3.50
2018-12-15T08:12:17.091Z,3.33
2018-12-15T08:14:45.467Z,3.33
2018-12-15T08:17:13.747Z,3.33
2018-12-15T08:19:42.053Z,3.17
2018-12-15T08:22:10.334Z,3.13
2018-12-15T08:24:38.717Z,3.27
2018-12-15T08:27:07.039Z,3.70
2018-12-15T08:29:35.346Z,3.43
2018-12-15T08:32:03.635Z,3.50
2018-12-15T08:34:31.919Z,3.30
2018-12-15T08:37:00.231Z,3.17
2018-12-15T08:39:28.531Z,3.50
2018-12-15T08:41:56.935Z,3.20
2018-12-15T08:44:25.215Z,3.60
2018-12-15T08:46:53.520Z,3.33
2018-12-15T08:49:21.822Z,3.50
2018-12-15T08:51:50.098Z,3.40
2018-12-15T08:54:18.419Z,3.33
2018-12-15T08:56:46.831Z,3.40
2018-12-15T08:59:15.232Z,3.40
2018-12-15T09:01:43.545Z,3.03
2018-12-15T09:04:11.949Z,3.10
2018-12-15T09:06:40.299Z,3.40
2018-12-15T09:09:08.639Z,3.27
2018-12-15T09:11:36.953Z,3.50
2018-12-15T09:14:05.265Z,3.70
2018-12-15T09:16:33.605Z,3.27
2018-12-15T09:19:01.889Z,3.50
2018-12-15T09:21:30.245Z,3.17
2018-12-15T09:23:58.596Z,3.30
2018-12-15T09:26:26.875Z,3.90
2018-12-15T09:28:55.173Z,3.30
2018-12-15T09:31:23.481Z,3.40
2018-12-15T09:33:51.796Z,3.50
2018-12-15T09:36:20.113Z,3.70
2018-12-15T09:38:48.397Z,3.50
2018-12-15T09:41:16.675Z,3.47
2018-12-15T09:43:44.946Z,3.70
2018-12-15T09:46:13.304Z,3.80
2018-12-15T09:48:41.609Z,3.67
2018-12-15T09:51:09.898Z,3.40
2018-12-15T09:53:38.188Z,3.57
2018-12-15T09:56:07.102Z,3.40
2018-12-15T09:58:35.377Z,3.90
2018-12-15T10:01:03.676Z,3.37
2018-12-15T10:03:31.978Z,3.60
2018-12-15T10:06:00.348Z,3.93
2018-12-15T10:08:28.646Z,3.33
2018-12-15T10:10:56.955Z,3.77
2018-12-15T10:13:25.263Z,3.90
2018-12-15T10:15:53.582Z,3.20
2018-12-15T10:18:21.881Z,3.57
2018-12-15T10:20:50.837Z,3.50
2018-12-15T10:23:19.130Z,4.10
2018-12-15T10:25:47.468Z,3.63
2018-12-15T10:28:15.801Z,3.40
2018-12-15T10:31:53.156Z,3.37
2018-12-15T10:34:21.454Z,3.90
2018-12-15T10:36:49.763Z,4.20
2018-12-15T10:39:18.051Z,4.30
2018-12-15T10:41:46.519Z,4.27
2018-12-15T10:44:14.829Z,4.73
2018-12-15T10:46:43.114Z,4.83
2018-12-15T10:49:11.422Z,6.07
2018-12-15T10:51:39.712Z,5.77
2018-12-15T10:54:08.207Z,5.00
2018-12-15T10:56:36.512Z,5.03
2018-12-15T10:59:04.833Z,6.77
2018-12-15T11:01:33.119Z,8.00
2018-12-15T11:04:01.419Z,5.87
2018-12-15T11:06:29.805Z,6.47
2018-12-15T11:08:58.108Z,5.47
2018-12-15T11:11:26.399Z,6.13
2018-12-15T11:13:54.691Z,6.53
2018-12-15T11:16:23.003Z,5.47
2018-12-15T11:18:51.307Z,5.47
2018-12-15T11:21:19.601Z,6.20
2018-12-15T11:23:47.913Z,6.13
2018-12-15T11:26:16.201Z,6.57
2018-12-15T11:28:44.511Z,5.77
2018-12-15T11:31:12.821Z,5.50
2018-12-15T11:33:41.123Z,5.73
2018-12-15T11:36:09.423Z,5.50
2018-12-15T11:38:37.717Z,4.77
2018-12-15T11:41:06.999Z,5.40
2018-12-15T11:43:35.287Z,5.47
2018-12-15T11:46:03.585Z,5.70
2018-12-15T11:48:31.872Z,5.77
2018-12-15T11:51:00.143Z,5.53
2018-12-15T11:53:28.452Z,5.77
2018-12-15T11:55:56.744Z,5.37
2018-12-15T11:58:25.045Z,5.43
2018-12-15T12:00:53.337Z,6.33
2018-12-15T12:03:21.625Z,5.33
2018-12-15T12:05:49.941Z,6.00
2018-12-15T12:08:18.208Z,5.57
2018-12-15T12:10:46.526Z,5.73
2018-12-15T12:13:14.826Z,6.17
2018-12-15T12:15:43.115Z,5.43
2018-12-15T12:18:11.493Z,5.63
2018-12-15T12:20:39.777Z,4.90
2018-12-15T12:23:08.055Z,5.30
2018-12-15T12:25:36.335Z,5.20
2018-12-15T12:28:04.637Z,5.20
2018-12-15T12:30:32.937Z,4.67
2018-12-15T12:33:01.275Z,5.53
2018-12-15T12:35:29.553Z,4.63
2018-12-15T12:37:57.875Z,4.97
2018-12-15T12:40:26.169Z,4.97
2018-12-15T12:42:54.582Z,8.80
2018-12-15T12:45:23.739Z,8.23
2018-12-15T12:47:52.165Z,6.60
2018-12-15T12:50:20.487Z,8.23
2018-12-15T12:52:49.135Z,9.83
2018-12-15T12:55:17.427Z,6.80
2018-12-15T12:57:45.744Z,5.77
2018-12-15T13:00:14.064Z,5.60
2018-12-15T13:02:42.387Z,5.47
2018-12-15T13:05:10.709Z,6.10
2018-12-15T13:07:39.017Z,5.60
2018-12-15T13:10:07.343Z,5.37
2018-12-15T13:12:35.651Z,5.60
2018-12-15T13:15:04.122Z,5.37
2018-12-15T13:17:32.433Z,5.23
2018-12-15T13:20:03.867Z,5.17
2018-12-15T13:22:31.070Z,4.87
2018-12-15T13:24:59.371Z,4.33
2018-12-15T13:27:27.712Z,5.43
2018-12-15T13:29:55.999Z,6.03
2018-12-15T13:32:24.272Z,5.40
2018-12-15T13:34:52.668Z,5.00
2018-12-15T13:37:21.060Z,5.20
2018-12-15T13:39:49.355Z,5.33
2018-12-15T13:42:21.526Z,5.23
2018-12-15T13:44:49.839Z,6.63
2018-12-15T13:47:18.162Z,4.93
2018-12-15T13:49:46.441Z,4.80
2018-12-15T13:52:14.722Z,5.40
2018-12-15T13:54:43.028Z,4.77
2018-12-15T13:57:11.433Z,4.30
2018-12-15T13:59:39.756Z,4.83
2018-12-15T14:02:08.066Z,4.77
2018-12-15T14:04:36.410Z,5.03
2018-12-15T14:07:04.690Z,4.43
2018-12-15T14:09:33.058Z,5.23
2018-12-15T14:12:01.360Z,5.17
2018-12-15T14:14:33.414Z,4.97
2018-12-15T14:17:01.733Z,5.70
2018-12-15T14:19:30.054Z,4.73
2018-12-15T14:21:58.376Z,5.70
2018-12-15T14:24:26.810Z,4.60
2018-12-15T14:26:55.151Z,5.00
2018-12-15T14:29:23.539Z,5.17
2018-12-15T14:31:51.857Z,5.60
2018-12-15T14:34:20.528Z,5.20
2018-12-15T14:36:48.902Z,5.20
2018-12-15T14:39:17.252Z,4.87
2018-12-15T14:41:45.564Z,6.07
2018-12-15T14:44:13.871Z,4.70
2018-12-15T14:46:42.200Z,4.23
2018-12-15T14:49:10.501Z,5.90
2018-12-15T14:51:38.809Z,4.80
2018-12-15T14:54:07.124Z,5.10
2018-12-15T14:56:35.424Z,5.83
2018-12-15T14:59:03.752Z,8.70
2018-12-15T15:01:32.079Z,4.80
2018-12-15T15:04:00.444Z,8.40
2018-12-15T15:06:28.863Z,4.90
2018-12-15T15:08:57.231Z,14.47
2018-12-15T15:11:25.799Z,9.27
2018-12-15T15:13:54.164Z,20.60
2018-12-15T15:16:22.556Z,28.20
2018-12-15T15:18:51.155Z,34.73
2018-12-15T15:21:19.503Z,57.37
2018-12-15T15:23:47.895Z,48.57
2018-12-15T15:26:16.543Z,23.73
2018-12-15T15:28:44.929Z,20.40
2018-12-15T15:31:13.276Z,17.33
2018-12-15T15:33:41.589Z,15.67
2018-12-15T15:36:09.959Z,7.90
2018-12-15T15:38:38.323Z,10.97
2018-12-15T15:41:06.666Z,12.37
2018-12-15T15:43:35.020Z,7.03
2018-12-15T15:46:03.443Z,11.50
2018-12-15T15:48:31.800Z,9.27
2018-12-15T15:51:00.132Z,10.10
2018-12-15T15:53:28.471Z,7.80
2018-12-15T15:55:56.806Z,6.33
2018-12-15T15:58:28.545Z,6.10
2018-12-15T16:00:56.846Z,6.50
2018-12-15T16:03:25.158Z,4.63
2018-12-15T16:05:53.480Z,6.00
2018-12-15T16:08:21.818Z,4.70
2018-12-15T16:10:50.160Z,6.87
2018-12-15T16:13:18.570Z,6.47
2018-12-15T16:15:46.933Z,7.37
2018-12-15T16:18:15.372Z,7.50
2018-12-15T16:20:43.688Z,4.80
2018-12-15T16:23:12.087Z,4.73
2018-12-15T16:25:40.411Z,5.63
2018-12-15T16:28:08.703Z,5.10
2018-12-15T16:30:37.038Z,5.73
2018-12-15T16:33:05.391Z,7.07
2018-12-15T16:35:33.755Z,5.73
2018-12-15T16:38:02.069Z,5.60
2018-12-15T16:40:30.399Z,5.03
2018-12-15T16:42:58.725Z,5.23
2018-12-15T16:45:27.110Z,6.30
2018-12-15T16:47:55.512Z,4.73
2018-12-15T16:50:23.865Z,5.20
2018-12-15T16:52:52.497Z,5.53
2018-12-15T16:55:20.941Z,5.23
2018-12-15T16:57:49.577Z,5.17
2018-12-15T17:00:17.932Z,5.10
2018-12-15T17:02:46.228Z,4.87
2018-12-15T17:05:14.576Z,5.10
2018-12-15T17:07:42.995Z,4.93
2018-12-15T17:10:11.326Z,5.60
2018-12-15T17:12:39.653Z,5.47
2018-12-15T17:15:08.808Z,5.50
2018-12-15T17:17:37.189Z,5.23
2018-12-15T17:20:06.536Z,5.20
2018-12-15T17:22:34.813Z,4.90
2018-12-15T17:25:03.158Z,4.40
2018-12-15T17:27:31.481Z,4.90
2018-12-15T17:29:59.946Z,4.83
2018-12-15T17:32:28.351Z,5.03
2018-12-15T17:34:56.956Z,4.93
2018-12-15T17:37:25.324Z,5.07
2018-12-15T17:39:53.710Z,4.77
2018-12-15T17:42:22.130Z,4.30
2018-12-15T17:44:50.536Z,4.80
2018-12-15T17:47:18.972Z,5.73
2018-12-15T17:49:47.385Z,4.90
2018-12-15T17:52:16.275Z,4.83
2018-12-15T17:54:44.756Z,4.70
2018-12-15T17:57:13.582Z,5.50
2018-12-15T17:59:41.986Z,5.30
2018-12-15T18:02:10.350Z,5.27
2018-12-15T18:04:38.925Z,4.80
2018-12-15T18:07:07.467Z,4.73
2018-12-15T18:09:35.799Z,7.03
2018-12-15T18:12:04.200Z,6.93
2018-12-15T18:14:32.638Z,5.23
2018-12-15T18:17:01.084Z,5.47
2018-12-15T18:19:29.940Z,4.43
2018-12-15T18:21:58.392Z,4.90
2018-12-15T18:24:27.164Z,5.20
2018-12-15T18:26:55.583Z,4.27
2018-12-15T18:29:24.059Z,4.43
2018-12-15T18:31:52.600Z,4.90
2018-12-15T18:34:21.054Z,4.80
2018-12-15T18:36:49.444Z,4.47
2018-12-15T18:39:17.916Z,4.27
2018-12-15T18:41:46.835Z,4.23
2018-12-15T18:44:16.875Z,4.80
2018-12-15T18:46:45.816Z,4.70
2018-12-15T18:49:15.400Z,4.53
2018-12-15T18:51:43.820Z,4.70
2018-12-15T18:54:12.250Z,4.53
2018-12-15T18:56:41.060Z,5.03
2018-12-15T18:59:09.680Z,4.83
2018-12-15T19:01:38.428Z,4.93
2018-12-15T19:04:06.822Z,5.43
2018-12-15T19:06:35.356Z,4.70
2018-12-15T19:09:05.958Z,4.70
2018-12-15T19:11:34.360Z,5.20
2018-12-15T19:14:03.056Z,4.53
2018-12-15T19:16:31.420Z,4.87
2018-12-15T19:18:59.922Z,4.80
2018-12-15T19:21:28.322Z,4.30
2018-12-15T19:23:56.629Z,4.40
2018-12-15T19:26:25.095Z,4.33
2018-12-15T19:28:53.649Z,4.60
2018-12-15T19:31:22.106Z,4.33
2018-12-15T19:33:50.518Z,4.60
2018-12-15T19:36:19.019Z,4.60
2018-12-15T19:38:47.510Z,5.10
2018-12-15T19:41:16.734Z,4.37
2018-12-15T19:43:45.186Z,4.67
2018-12-15T19:46:30.202Z,4.37
2018-12-15T19:48:58.836Z,4.30
2018-12-15T19:51:29.724Z,4.60
2018-12-15T19:53:57.920Z,4.90
2018-12-15T19:56:26.368Z,5.57
2018-12-15T19:58:54.732Z,5.10
2018-12-15T20:01:23.091Z,5.00
2018-12-15T20:03:51.476Z,4.43
2018-12-15T20:06:19.823Z,4.70
2018-12-15T20:08:48.717Z,4.27
2018-12-15T20:11:17.121Z,4.20
2018-12-15T20:13:45.554Z,4.80
2018-12-15T20:16:14.015Z,5.30
2018-12-15T20:18:42.498Z,5.07
2018-12-15T20:21:10.897Z,5.10
2018-12-15T20:23:39.297Z,4.53
2018-12-15T20:26:07.668Z,4.57
2018-12-15T20:28:35.989Z,5.27
2018-12-15T20:31:05.339Z,4.90
2018-12-15T20:33:33.726Z,4.93
2018-12-15T20:36:02.101Z,5.13
2018-12-15T20:38:30.780Z,5.07
2018-12-15T20:40:59.186Z,5.13
2018-12-15T20:43:27.599Z,5.30
2018-12-15T20:45:55.955Z,4.73
2018-12-15T20:48:24.689Z,6.13
2018-12-15T20:50:53.095Z,4.73
2018-12-15T20:53:21.854Z,4.67
2018-12-15T20:55:50.281Z,4.83
2018-12-15T20:58:18.750Z,4.40
2018-12-15T21:00:47.125Z,4.40
2018-12-15T21:03:15.501Z,4.37
2018-12-15T21:05:43.912Z,4.73
2018-12-15T21:08:12.327Z,4.30
2018-12-15T21:10:40.719Z,4.10
2018-12-15T21:13:09.209Z,4.87
2018-12-15T21:15:41.659Z,4.60
2018-12-15T21:18:10.047Z,4.30
2018-12-15T21:20:38.533Z,4.97
2018-12-15T21:23:06.910Z,4.43
2018-12-15T21:25:35.281Z,4.57
2018-12-15T21:28:03.623Z,4.70
2018-12-15T21:30:32.291Z,4.50
2018-12-15T21:33:00.724Z,4.70
2018-12-15T21:35:29.112Z,4.67
2018-12-15T21:37:57.547Z,4.47
2018-12-15T21:40:25.926Z,4.43
2018-12-15T21:42:54.349Z,4.40
2018-12-15T21:45:22.715Z,4.83
2018-12-15T21:47:57.429Z,4.10
2018-12-15T21:50:22.072Z,4.50
2018-12-15T21:52:50.517Z,3.90
2018-12-15T21:55:19.190Z,4.40
2018-12-15T21:57:47.549Z,4.00
2018-12-15T22:00:16.005Z,4.07
2018-12-15T22:02:44.311Z,4.63
2018-12-15T22:05:12.777Z,4.17
2018-12-15T22:07:41.500Z,4.33
2018-12-15T22:10:09.864Z,4.40
2018-12-15T22:12:38.233Z,4.40
2018-12-15T22:15:07.072Z,4.57
2018-12-15T22:17:35.417Z,4.10
2018-12-15T22:20:04.543Z,4.20
2018-12-15T22:22:32.940Z,4.30
2018-12-15T22:25:01.381Z,4.53
2018-12-15T22:27:29.700Z,4.67
2018-12-15T22:29:58.189Z,4.37
2018-12-15T22:32:26.491Z,4.40
2018-12-15T22:34:54.829Z,4.53
2018-12-15T22:37:23.163Z,4.00
2018-12-15T22:39:51.515Z,4.43
2018-12-15T22:42:19.862Z,4.30
2018-12-15T22:44:48.493Z,3.83
2018-12-15T22:47:16.885Z,3.77
2018-12-15T22:49:45.211Z,4.20
2018-12-15T22:52:13.529Z,3.80
2018-12-15T22:54:41.894Z,4.40
2018-12-15T22:57:10.198Z,4.43
2018-12-15T22:59:38.507Z,4.40
2018-12-15T23:02:06.909Z,4.23
2018-12-15T23:04:35.239Z,4.33
2018-12-15T23:07:03.635Z,3.73
2018-12-15T23:09:31.959Z,4.23
2018-12-15T23:12:00.259Z,4.17
2018-12-15T23:14:28.572Z,4.10
2018-12-15T23:16:56.867Z,4.23
2018-12-15T23:19:25.167Z,4.53
2018-12-15T23:21:53.471Z,3.93
2018-12-15T23:24:21.751Z,4.10
2018-12-15T23:26:50.070Z,4.53
2018-12-15T23:29:18.373Z,4.37
2018-12-15T23:31:46.682Z,3.83
2018-12-15T23:34:15.016Z,4.20
2018-12-15T23:36:43.329Z,4.30
2018-12-15T23:39:11.644Z,4.00
2018-12-15T23:41:39.946Z,3.87
2018-12-15T23:44:08.263Z,3.90
2018-12-15T23:46:36.546Z,3.70
2018-12-15T23:49:04.859Z,4.23
2018-12-15T23:51:33.171Z,4.47
2018-12-15T23:54:01.487Z,3.83
2018-12-15T23:56:29.780Z,3.97
2018-12-15T23:58:58.063Z,4.13
